Time;durP1;ratioP1;P1;durP2;ratioP2;P2;SDS_P1;SDS_P2;PMS_P1;PMS_P2;Temp;Humidity;BMP_temperature;BMP_pressure;BME280_temperature;BME280_humidity;BME280_pressure;Samples;Min_cycle;Max_cycle;Signal;HPM_P1;HPM_P2
2022/05/03 00:00:10;;;;;;;1.80;1.02;;;7.00;97.40;;;;;;5064302;28;20124;-72
2022/05/03 00:02:54;;;;;;;1.80;0.85;;;7.00;97.20;;;;;;5063684;28;20434;-71
2022/05/03 00:05:47;;;;;;;2.20;1.13;;;7.00;97.40;;;;;;5063740;28;20028;-71
2022/05/03 00:08:31;;;;;;;1.77;0.80;;;7.00;97.10;;;;;;5067173;28;20036;-71
2022/05/03 00:11:20;;;;;;;3.65;1.35;;;6.80;97.30;;;;;;5044375;28;20641;-71
2022/05/03 00:14:16;;;;;;;1.30;0.80;;;6.80;97.60;;;;;;5064501;28;20044;-71
2022/05/03 00:16:44;;;;;;;1.52;0.70;;;6.80;98.50;;;;;;5062946;28;20036;-71
2022/05/03 00:19:10;;;;;;;2.95;0.93;;;6.70;97.30;;;;;;5064675;28;20028;-71
2022/05/03 00:21:37;;;;;;;2.40;1.20;;;6.70;97.30;;;;;;5059005;28;20517;-72
2022/05/03 00:24:05;;;;;;;2.38;1.17;;;6.80;97.30;;;;;;5061723;28;20080;-72
2022/05/03 00:26:31;;;;;;;1.83;0.98;;;6.70;97.10;;;;;;5066221;28;20040;-71
2022/05/03 00:28:58;;;;;;;3.30;1.02;;;6.70;97.30;;;;;;5064156;28;20096;-71
2022/05/03 00:31:25;;;;;;;2.03;0.93;;;6.70;97.30;;;;;;5066314;28;20406;-71
2022/05/03 00:33:53;;;;;;;2.50;0.80;;;6.70;97.20;;;;;;5066072;28;20123;-71
2022/05/03 00:36:19;;;;;;;1.85;0.98;;;6.70;97.20;;;;;;5062949;28;20045;-71
2022/05/03 00:38:45;;;;;;;1.45;0.90;;;6.70;97.30;;;;;;5064276;28;20475;-71
2022/05/03 00:41:16;;;;;;;1.83;0.88;;;6.70;97.10;;;;;;5064731;28;20116;-72
2022/05/03 00:43:52;;;;;;;2.17;1.20;;;6.70;97.10;;;;;;5064656;28;20044;-71
2022/05/03 00:46:23;;;;;;;2.53;1.23;;;6.70;97.00;;;;;;5064654;28;20051;-71
2022/05/03 00:49:12;;;;;;;3.05;0.93;;;6.60;97.50;;;;;;5066137;28;20514;-71
2022/05/03 00:51:52;;;;;;;2.88;0.95;;;6.50;98.30;;;;;;5063711;28;20467;-72
2022/05/03 00:54:37;;;;;;;4.35;1.25;;;6.40;98.00;;;;;;5063350;28;20555;-71
2022/05/03 00:57:37;;;;;;;2.55;1.13;;;6.30;97.60;;;;;;5062367;28;20048;-72
2022/05/03 01:00:14;;;;;;;2.40;0.90;;;6.20;98.90;;;;;;5059741;28;20040;-72
2022/05/03 01:03:18;;;;;;;2.03;1.00;;;6.10;99.00;;;;;;5061326;28;20494;-72
2022/05/03 01:06:15;;;;;;;3.80;0.82;;;6.10;99.90;;;;;;5054621;28;20044;-71
2022/05/03 01:08:59;;;;;;;0.60;0.50;;;6.10;99.50;;;;;;5064527;28;20482;-72
2022/05/03 01:11:40;;;;;;;1.75;0.75;;;6.20;98.50;;;;;;5065333;28;20040;-71
2022/05/03 01:14:33;;;;;;;2.00;0.95;;;6.20;98.70;;;;;;5044932;28;20111;-72
2022/05/03 01:17:04;;;;;;;2.78;0.93;;;6.20;99.20;;;;;;5064501;28;20044;-71
2022/05/03 01:19:33;;;;;;;4.18;1.40;;;6.20;98.00;;;;;;5044468;28;20045;-71
2022/05/03 01:22:06;;;;;;;2.78;1.20;;;6.20;97.90;;;;;;5065883;28;20044;-71
2022/05/03 01:24:48;;;;;;;2.67;1.30;;;6.20;98.20;;;;;;5045548;28;20040;-72
2022/05/03 01:27:34;;;;;;;2.78;0.93;;;6.10;98.90;;;;;;5065553;28;20037;-71
2022/05/03 01:30:02;;;;;;;2.50;1.17;;;6.00;98.60;;;;;;5063278;28;20040;-71
2022/05/03 01:32:31;;;;;;;2.53;1.02;;;5.90;98.50;;;;;;5064535;28;20432;-72
2022/05/03 01:35:00;;;;;;;1.33;0.80;;;5.80;99.00;;;;;;5040766;28;20039;-72
2022/05/03 01:37:37;;;;;;;1.48;0.80;;;5.80;99.10;;;;;;5063766;28;20060;-72
2022/05/03 01:40:21;;;;;;;2.00;1.02;;;5.90;99.70;;;;;;5061356;28;20040;-72
2022/05/03 01:43:00;;;;;;;2.30;1.00;;;5.80;99.20;;;;;;5063316;28;20037;-71
2022/05/03 01:45:28;;;;;;;3.08;1.05;;;5.70;99.70;;;;;;5047310;28;20047;-71
2022/05/03 01:48:20;;;;;;;2.28;1.00;;;5.70;99.50;;;;;;5063342;28;20044;-71
2022/05/03 01:51:15;;;;;;;3.65;1.00;;;5.70;99.90;;;;;;5047338;28;20569;-71
2022/05/03 01:53:46;;;;;;;2.85;1.08;;;5.70;99.90;;;;;;5059194;28;20041;-71
2022/05/03 01:56:22;;;;;;;3.13;1.40;;;5.70;99.80;;;;;;5063173;28;20032;-71
2022/05/03 01:59:07;;;;;;;1.92;1.02;;;5.70;99.20;;;;;;5062180;28;20108;-71
2022/05/03 02:01:48;;;;;;;1.77;0.87;;;5.70;99.90;;;;;;5065194;28;20047;-71
2022/05/03 02:04:39;;;;;;;2.28;0.85;;;5.70;99.90;;;;;;5059947;28;20856;-71
2022/05/03 02:07:06;;;;;;;2.35;0.90;;;5.70;99.90;;;;;;5040759;28;20136;-72
2022/05/03 02:10:03;;;;;;;2.28;0.93;;;5.80;99.00;;;;;;5044709;28;20040;-71
2022/05/03 02:12:30;;;;;;;2.38;0.95;;;5.80;99.60;;;;;;5063598;28;20081;-72
2022/05/03 02:15:04;;;;;;;2.53;1.10;;;5.70;98.80;;;;;;5062063;28;20559;-71
2022/05/03 02:17:53;;;;;;;1.90;0.85;;;5.80;98.80;;;;;;5046727;28;20091;-72
2022/05/03 02:20:30;;;;;;;3.05;1.13;;;5.70;98.60;;;;;;5062134;28;20174;-71
2022/05/03 02:23:15;;;;;;;0.90;0.63;;;5.60;98.70;;;;;;5064480;28;20761;-72
2022/05/03 02:26:17;;;;;;;3.08;1.40;;;5.60;99.00;;;;;;5062892;28;20124;-71
2022/05/03 02:28:46;;;;;;;1.70;0.98;;;5.60;99.60;;;;;;5059667;28;20103;-72
2022/05/03 02:31:18;;;;;;;1.63;1.05;;;5.60;99.10;;;;;;5063518;28;20086;-71
2022/05/03 02:33:52;;;;;;;1.38;0.88;;;5.50;99.10;;;;;;5066691;28;20045;-72
2022/05/03 02:36:23;;;;;;;2.30;1.10;;;5.50;99.40;;;;;;5067385;28;20107;-71
2022/05/03 02:39:03;;;;;;;2.40;1.05;;;5.50;99.40;;;;;;5067028;28;20049;-72
2022/05/03 02:41:36;;;;;;;1.70;1.10;;;5.40;99.20;;;;;;5066521;28;20560;-71
2022/05/03 02:44:05;;;;;;;1.85;0.95;;;5.30;99.20;;;;;;5064321;28;20052;-71
2022/05/03 02:46:47;;;;;;;1.52;0.70;;;5.30;99.80;;;;;;5047956;28;20049;-71
2022/05/03 02:49:26;;;;;;;2.17;1.23;;;5.30;99.90;;;;;;5067089;28;20055;-71
2022/05/03 02:52:29;;;;;;;3.50;1.33;;;5.20;99.80;;;;;;5067579;28;20037;-71
2022/05/03 02:55:04;;;;;;;2.97;1.40;;;5.20;99.90;;;;;;5067640;28;20460;-72
2022/05/03 02:57:38;;;;;;;3.67;0.98;;;5.30;99.90;;;;;;5064681;28;20564;-71
2022/05/03 03:03:20;;;;;;;2.33;1.38;;;5.30;99.40;;;;;;5067731;28;20468;-71
2022/05/03 03:05:55;;;;;;;4.00;1.45;;;5.30;99.50;;;;;;5065736;28;20116;-71
2022/05/03 03:08:23;;;;;;;2.25;1.33;;;5.30;99.60;;;;;;5067271;28;20504;-71
2022/05/03 03:11:03;;;;;;;2.47;1.38;;;5.30;99.60;;;;;;5049371;28;20128;-72
2022/05/03 03:13:52;;;;;;;3.00;1.75;;;5.30;99.90;;;;;;5048014;28;20069;-72
2022/05/03 03:16:28;;;;;;;6.15;1.23;;;5.30;99.20;;;;;;5064016;28;20033;-72
2022/05/03 03:18:54;;;;;;;;;;;5.30;99.60;;;;;;5059051;28;20091;-71
2022/05/03 03:21:27;;;;;;;1.38;1.00;;;5.20;99.90;;;;;;5065721;28;19916;-72
2022/05/03 03:23:53;;;;;;;2.60;0.90;;;5.20;99.90;;;;;;5066183;28;20044;-72
2022/05/03 03:26:22;;;;;;;2.78;1.10;;;5.10;99.90;;;;;;5049898;28;20510;-71
2022/05/03 03:28:49;;;;;;;3.30;1.00;;;5.10;99.70;;;;;;5063943;28;20039;-72
2022/05/03 03:31:17;;;;;;;3.83;1.45;;;5.00;99.90;;;;;;5064478;28;20055;-72
2022/05/03 03:33:43;;;;;;;2.10;1.13;;;5.00;99.90;;;;;;5046150;28;20036;-72
2022/05/03 03:36:10;;;;;;;2.45;1.25;;;5.00;99.90;;;;;;5064529;28;20066;-72
2022/05/03 03:38:39;;;;;;;4.45;1.55;;;4.90;99.80;;;;;;5066432;28;20048;-72
2022/05/03 03:41:06;;;;;;;2.45;0.68;;;4.80;99.90;;;;;;5054909;28;20037;-72
2022/05/03 03:43:31;;;;;;;3.33;1.20;;;4.70;99.90;;;;;;5065134;28;20060;-72
2022/05/03 03:45:57;;;;;;;3.08;1.48;;;4.80;99.90;;;;;;5065469;28;20041;-72
2022/05/03 03:48:23;;;;;;;4.60;1.40;;;4.80;99.90;;;;;;5065105;28;20033;-72
2022/05/03 03:50:49;;;;;;;2.05;1.00;;;4.80;99.90;;;;;;5065315;28;20409;-72
2022/05/03 03:53:15;;;;;;;1.95;1.08;;;4.80;99.90;;;;;;5050810;28;20056;-72
2022/05/03 03:55:44;;;;;;;5.40;1.63;;;4.80;99.90;;;;;;5062778;28;20490;-72
2022/05/03 03:58:10;;;;;;;3.05;1.40;;;4.80;99.90;;;;;;5049480;28;20040;-72
2022/05/03 04:00:36;;;;;;;2.35;0.90;;;4.90;99.90;;;;;;5064171;28;20044;-72
2022/05/03 04:03:01;;;;;;;2.80;1.25;;;5.00;99.90;;;;;;5063775;28;20332;-72
2022/05/03 04:05:28;;;;;;;3.35;1.45;;;5.00;99.90;;;;;;5049323;28;20039;-72
2022/05/03 04:07:54;;;;;;;2.40;1.20;;;5.00;99.90;;;;;;5066184;28;20166;-72
2022/05/03 04:10:20;;;;;;;3.67;1.40;;;5.00;99.90;;;;;;5066173;28;20044;-72
2022/05/03 04:12:46;;;;;;;2.95;1.27;;;5.10;99.90;;;;;;5065956;28;20044;-72
2022/05/03 04:15:13;;;;;;;3.58;1.48;;;5.10;99.90;;;;;;5063612;28;20125;-72
2022/05/03 04:17:38;;;;;;;2.35;1.40;;;5.10;99.90;;;;;;5064729;28;20048;-72
2022/05/03 04:20:04;;;;;;;2.22;1.20;;;5.20;99.90;;;;;;5062607;28;20055;-72
2022/05/03 04:22:34;;;;;;;4.47;1.45;;;5.20;99.90;;;;;;5063598;28;20032;-71
2022/05/03 04:25:02;;;;;;;4.40;1.58;;;5.30;99.90;;;;;;5066267;28;20415;-72
2022/05/03 04:27:28;;;;;;;3.33;1.63;;;5.30;99.90;;;;;;5064039;28;20040;-72
2022/05/03 04:29:55;;;;;;;2.95;1.70;;;5.40;99.90;;;;;;5048427;28;20092;-72
2022/05/03 04:32:21;;;;;;;3.53;1.55;;;5.40;99.90;;;;;;5062563;28;20032;-72
2022/05/03 04:34:47;;;;;;;2.22;1.40;;;5.40;99.90;;;;;;5064644;28;20540;-72
2022/05/03 04:37:13;;;;;;;4.20;1.67;;;5.50;99.90;;;;;;5065181;28;20165;-73
2022/05/03 04:39:39;;;;;;;6.55;2.90;;;5.50;99.90;;;;;;5066817;28;20124;-72
2022/05/03 04:42:05;;;;;;;5.30;2.60;;;5.60;99.90;;;;;;5065776;28;20148;-72
2022/05/03 04:44:31;;;;;;;5.25;2.20;;;5.70;99.90;;;;;;5063154;28;20048;-72
2022/05/03 04:46:57;;;;;;;4.00;2.00;;;5.70;99.90;;;;;;5061326;28;20036;-72
2022/05/03 04:49:22;;;;;;;3.83;1.55;;;5.80;99.90;;;;;;5048317;28;20040;-72
2022/05/03 04:51:48;;;;;;;3.85;1.58;;;5.80;99.90;;;;;;5065267;28;20040;-72
2022/05/03 04:54:14;;;;;;;4.85;2.00;;;5.90;99.90;;;;;;5065368;28;20044;-72
2022/05/03 04:56:45;;;;;;;2.80;1.77;;;5.80;99.90;;;;;;5065974;28;20286;-72
2022/05/03 04:59:10;;;;;;;3.85;1.30;;;5.90;99.90;;;;;;5062366;28;20399;-72
2022/05/03 05:01:36;;;;;;;3.13;1.77;;;5.90;99.90;;;;;;5064690;28;20071;-72
2022/05/03 05:04:01;;;;;;;3.28;1.33;;;5.90;99.90;;;;;;5064152;28;20524;-72
2022/05/03 05:06:27;;;;;;;3.85;1.80;;;5.90;99.90;;;;;;5066292;28;20127;-72
2022/05/03 05:08:53;;;;;;;3.45;1.73;;;6.00;99.90;;;;;;5064501;28;20044;-72
2022/05/03 05:11:18;;;;;;;4.82;1.98;;;6.00;99.90;;;;;;5064191;28;20033;-72
2022/05/03 05:13:45;;;;;;;2.75;1.63;;;6.10;99.90;;;;;;5063405;28;20036;-72
2022/05/03 05:16:10;;;;;;;12.68;2.05;;;6.10;99.90;;;;;;5064034;28;20043;-72
2022/05/03 05:18:36;;;;;;;4.85;2.15;;;6.20;99.90;;;;;;5064202;28;20535;-72
2022/05/03 05:21:02;;;;;;;3.35;2.28;;;6.20;99.90;;;;;;5065247;28;20036;-72
2022/05/03 05:23:28;;;;;;;3.65;2.13;;;6.30;99.90;;;;;;5061990;28;20402;-72
2022/05/03 05:25:54;;;;;;;5.28;2.80;;;6.40;99.90;;;;;;5065382;28;20045;-72
2022/05/03 05:28:21;;;;;;;4.10;2.10;;;6.50;99.90;;;;;;5060792;28;20401;-72
2022/05/03 05:30:49;;;;;;;5.68;3.00;;;6.60;99.90;;;;;;5062065;28;20041;-72
2022/05/03 05:33:15;;;;;;;4.93;3.20;;;6.60;99.90;;;;;;5076759;28;20110;-72
2022/05/03 05:35:40;;;;;;;4.80;2.42;;;6.70;99.90;;;;;;5063333;28;20063;-72
2022/05/03 05:38:06;;;;;;;4.22;2.58;;;6.80;99.90;;;;;;5063328;28;20439;-72
2022/05/03 05:40:32;;;;;;;7.28;3.28;;;6.90;99.90;;;;;;5065206;28;20044;-72
2022/05/03 05:43:02;;;;;;;6.05;3.03;;;6.90;99.90;;;;;;5044928;28;20482;-72
2022/05/03 05:45:28;;;;;;;5.38;3.08;;;7.00;99.90;;;;;;5064408;28;20374;-72
2022/05/03 05:47:56;;;;;;;8.40;3.03;;;7.00;99.90;;;;;;5063573;28;20071;-72
2022/05/03 05:50:21;;;;;;;6.20;3.72;;;7.10;99.90;;;;;;5064989;28;20115;-72
2022/05/03 05:55:31;;;;;;;6.85;3.67;;;7.20;99.90;;;;;;5059615;28;20044;-72
2022/05/03 05:57:56;;;;;;;10.70;4.65;;;7.30;99.90;;;;;;5060051;28;20043;-72
2022/05/03 06:00:22;;;;;;;11.27;4.28;;;7.30;99.90;;;;;;5060688;28;20039;-72
2022/05/03 06:02:48;;;;;;;6.93;3.47;;;7.30;99.90;;;;;;5061775;28;20040;-72
2022/05/03 06:05:13;;;;;;;6.45;3.42;;;7.40;99.90;;;;;;5058583;28;20048;-72
2022/05/03 06:07:39;;;;;;;8.40;3.65;;;7.50;99.90;;;;;;5066048;28;20055;-72
2022/05/03 06:10:05;;;;;;;6.28;3.40;;;7.50;99.90;;;;;;5066341;28;20028;-72
2022/05/03 06:12:31;;;;;;;7.38;3.90;;;7.60;99.90;;;;;;5048974;28;20044;-71
2022/05/03 06:14:57;;;;;;;8.38;3.30;;;7.60;99.90;;;;;;5065422;28;20037;-72
2022/05/03 06:17:22;;;;;;;9.50;4.32;;;7.60;99.90;;;;;;5064915;28;20043;-72
2022/05/03 06:19:48;;;;;;;8.52;4.55;;;7.70;99.90;;;;;;5065075;28;20314;-71
2022/05/03 06:22:14;;;;;;;8.80;4.13;;;7.70;99.90;;;;;;5067285;28;20040;-71
2022/05/03 06:24:40;;;;;;;10.43;4.68;;;7.80;99.90;;;;;;5049858;28;20038;-72
2022/05/03 06:27:05;;;;;;;11.00;5.38;;;7.80;99.90;;;;;;5083904;28;20511;-71
2022/05/03 06:29:35;;;;;;;9.32;4.20;;;7.80;99.90;;;;;;5064051;28;20043;-72
2022/05/03 06:32:00;;;;;;;10.45;5.28;;;7.80;99.90;;;;;;5050258;28;20067;-71
2022/05/03 06:34:26;;;;;;;12.00;4.97;;;7.90;99.90;;;;;;5064399;28;20094;-72
2022/05/03 06:36:52;;;;;;;8.52;4.47;;;8.00;99.90;;;;;;5064185;28;20028;-72
2022/05/03 06:39:18;;;;;;;8.63;4.93;;;8.00;99.90;;;;;;5060524;28;20032;-71
2022/05/03 06:41:43;;;;;;;12.90;5.13;;;8.10;99.90;;;;;;5069516;28;20507;-71
2022/05/03 06:44:09;;;;;;;9.60;4.93;;;8.10;99.90;;;;;;5059730;28;20047;-71
2022/05/03 06:46:35;;;;;;;12.35;4.95;;;8.10;99.90;;;;;;5050063;28;20383;-72
2022/05/03 06:49:00;;;;;;;8.32;5.13;;;8.20;99.90;;;;;;5068284;28;20036;-72
2022/05/03 06:51:26;;;;;;;10.43;5.30;;;8.30;99.90;;;;;;5064922;28;20064;-72
2022/05/03 06:53:52;;;;;;;8.38;4.22;;;8.30;99.90;;;;;;5064212;28;20043;-72
2022/05/03 06:56:18;;;;;;;9.80;4.53;;;8.30;99.90;;;;;;5063305;28;20041;-72
2022/05/03 06:58:44;;;;;;;11.00;4.82;;;8.40;99.90;;;;;;5047033;28;20048;-72
2022/05/03 07:01:11;;;;;;;8.60;4.85;;;8.40;99.90;;;;;;5061862;28;20041;-72
2022/05/03 07:03:37;;;;;;;15.60;5.97;;;8.40;99.90;;;;;;5062220;28;20477;-72
2022/05/03 07:06:03;;;;;;;12.10;5.30;;;8.40;99.90;;;;;;5058694;28;20075;-72
2022/05/03 07:08:32;;;;;;;12.43;5.70;;;8.50;99.90;;;;;;5044112;28;20096;-71
2022/05/03 07:10:58;;;;;;;14.50;6.45;;;8.50;99.90;;;;;;5059860;28;20032;-72
2022/05/03 07:13:24;;;;;;;13.20;6.15;;;8.50;99.90;;;;;;5056456;28;20047;-72
2022/05/03 07:15:54;;;;;;;10.68;5.03;;;8.50;99.90;;;;;;5041571;28;20481;-72
2022/05/03 07:23:50;;;;;;;14.70;6.40;;;8.60;99.90;;;;;;5062902;28;20036;-72
2022/05/03 07:26:16;;;;;;;12.20;5.60;;;8.60;99.90;;;;;;5065621;28;20052;-72
2022/05/03 07:28:42;;;;;;;11.48;6.57;;;8.60;99.90;;;;;;5060667;28;20098;-72
2022/05/03 07:31:08;;;;;;;16.83;4.85;;;8.60;99.90;;;;;;5064139;28;20032;-72
2022/05/03 07:33:34;;;;;;;9.38;4.50;;;8.60;99.90;;;;;;5063495;28;20557;-72
2022/05/03 07:36:00;;;;;;;13.18;7.13;;;8.60;99.90;;;;;;5064700;28;20159;-72
2022/05/03 07:38:26;;;;;;;11.93;5.03;;;8.60;99.90;;;;;;5062377;28;20059;-72
2022/05/03 07:40:51;;;;;;;12.48;5.85;;;8.70;99.90;;;;;;5047262;28;20378;-72
2022/05/03 07:43:17;;;;;;;12.75;5.53;;;8.70;99.90;;;;;;5063284;28;20504;-71
2022/05/03 07:45:42;;;;;;;13.38;5.70;;;8.70;99.90;;;;;;5062810;28;20044;-72
2022/05/03 07:48:08;;;;;;;17.70;5.93;;;8.70;99.90;;;;;;5061283;28;20046;-72
2022/05/03 07:50:34;;;;;;;15.95;6.47;;;8.80;99.90;;;;;;5059095;28;20048;-72
2022/05/03 07:52:59;;;;;;;12.23;4.60;;;8.80;99.90;;;;;;5064403;28;20047;-71
2022/05/03 07:55:25;;;;;;;12.73;5.65;;;8.80;99.90;;;;;;5062491;28;20486;-71
2022/05/03 07:57:50;;;;;;;9.68;4.97;;;8.80;99.90;;;;;;5046613;28;20032;-71
2022/05/03 08:00:16;;;;;;;9.68;3.83;;;8.90;99.90;;;;;;5063945;28;20098;-72
2022/05/03 08:02:42;;;;;;;10.35;4.72;;;8.90;99.90;;;;;;5065653;28;20054;-70
2022/05/03 08:05:09;;;;;;;10.43;4.28;;;8.90;99.90;;;;;;5062982;28;20119;-71
2022/05/03 08:07:35;;;;;;;8.43;3.85;;;9.00;99.90;;;;;;5059868;28;20440;-71
2022/05/03 08:10:02;;;;;;;10.27;3.47;;;9.00;99.90;;;;;;5066665;28;20094;-71
2022/05/03 08:12:28;;;;;;;6.32;3.60;;;9.00;99.90;;;;;;5065570;28;20033;-71
2022/05/03 08:14:55;;;;;;;6.00;3.03;;;9.00;99.90;;;;;;5064923;28;20044;-71
2022/05/03 08:17:20;;;;;;;6.25;2.60;;;9.10;99.90;;;;;;5049164;28;20032;-71
2022/05/03 08:19:46;;;;;;;3.65;1.75;;;9.10;99.90;;;;;;5066067;28;20489;-71
2022/05/03 08:22:12;;;;;;;4.55;1.83;;;9.20;99.90;;;;;;5063274;28;20638;-71
2022/05/03 08:24:37;;;;;;;3.72;1.38;;;9.20;99.90;;;;;;5063571;28;20044;-71
2022/05/03 08:27:04;;;;;;;3.00;1.25;;;9.20;99.90;;;;;;5065095;28;20032;-71
2022/05/03 08:29:31;;;;;;;3.13;1.85;;;9.20;99.90;;;;;;5044696;28;20110;-72
2022/05/03 08:31:58;;;;;;;3.00;0.95;;;9.30;99.90;;;;;;5049680;28;20468;-71
2022/05/03 08:34:24;;;;;;;3.05;1.27;;;9.30;99.90;;;;;;5050094;28;20033;-71
2022/05/03 08:42:19;;;;;;;3.33;1.20;;;9.40;99.90;;;;;;5061261;28;20048;-71
2022/05/03 08:44:44;;;;;;;6.10;1.25;;;9.40;99.90;;;;;;5066816;28;20429;-71
2022/05/03 08:47:10;;;;;;;1.85;1.10;;;9.40;99.90;;;;;;5057894;28;20064;-71
2022/05/03 08:49:47;;;;;;;6.18;2.22;;;9.50;99.90;;;;;;5063438;28;20040;-71
2022/05/03 08:52:16;;;;;;;4.65;1.48;;;9.50;99.90;;;;;;5065751;28;20049;-71
2022/05/03 08:54:42;;;;;;;4.50;1.77;;;9.50;99.90;;;;;;5066463;28;20373;-71
2022/05/03 08:57:08;;;;;;;3.55;1.55;;;9.50;99.90;;;;;;5068036;28;20063;-71
2022/05/03 08:59:36;;;;;;;3.03;1.45;;;9.50;99.90;;;;;;5064022;28;20490;-71
2022/05/03 09:02:01;;;;;;;3.58;1.75;;;9.50;99.90;;;;;;5048846;28;20398;-71
2022/05/03 09:04:27;;;;;;;7.00;1.70;;;9.50;99.90;;;;;;5047604;28;20040;-71
2022/05/03 09:06:53;;;;;;;3.97;1.35;;;9.60;99.90;;;;;;5049971;28;20617;-71
2022/05/03 09:09:21;;;;;;;3.88;1.92;;;9.60;99.90;;;;;;5065691;28;20072;-71
2022/05/03 09:11:49;;;;;;;2.95;0.98;;;9.60;99.90;;;;;;5067128;28;20040;-71
2022/05/03 09:14:37;;;;;;;4.50;1.85;;;9.50;99.90;;;;;;5063971;28;20059;-71
2022/05/03 09:17:04;;;;;;;4.45;1.38;;;9.60;99.90;;;;;;5065719;28;20406;-71
2022/05/03 09:19:29;;;;;;;2.85;1.17;;;9.60;99.90;;;;;;5058272;28;20038;-71
2022/05/03 09:25:02;;;;;;;4.35;1.70;;;9.60;99.90;;;;;;5058609;28;20037;-71
2022/05/03 09:27:28;;;;;;;4.78;1.42;;;9.60;99.90;;;;;;5059500;28;20123;-71
2022/05/03 09:30:09;;;;;;;4.03;1.63;;;9.60;99.90;;;;;;5046003;28;20135;-71
2022/05/03 09:32:40;;;;;;;4.70;1.35;;;9.70;99.90;;;;;;5054875;28;20059;-71
2022/05/03 09:35:26;;;;;;;4.53;1.35;;;9.70;99.90;;;;;;5058323;28;20123;-71
2022/05/03 09:37:52;;;;;;;;;;;9.70;99.90;;;;;;5056827;28;20595;-72
2022/05/03 09:40:17;;;;;;;6.53;1.90;;;9.70;99.90;;;;;;5043127;28;19960;-71
2022/05/03 09:42:54;;;;;;;3.85;1.88;;;9.70;99.90;;;;;;5060636;28;20037;-71
2022/05/03 09:45:25;;;;;;;6.53;1.75;;;9.80;99.90;;;;;;5040564;28;20048;-71
2022/05/03 09:47:56;;;;;;;9.18;1.73;;;9.80;99.90;;;;;;5044327;28;20097;-71
2022/05/03 09:50:42;;;;;;;4.30;1.25;;;9.80;99.90;;;;;;5062315;28;20124;-71
2022/05/03 09:53:11;;;;;;;;;;;9.90;99.90;;;;;;5059964;28;20452;-71
2022/05/03 09:55:39;;;;;;;3.97;1.38;;;9.90;99.90;;;;;;5062207;28;19924;-70
2022/05/03 09:58:06;;;;;;;8.70;1.30;;;9.90;99.90;;;;;;5062104;28;20047;-71
2022/05/03 10:00:34;;;;;;;4.63;1.50;;;9.90;99.90;;;;;;5044169;28;20120;-71
2022/05/03 10:03:01;;;;;;;6.43;1.67;;;9.90;99.90;;;;;;5062401;28;20042;-71
2022/05/03 10:05:28;;;;;;;7.13;1.58;;;9.90;99.90;;;;;;5059685;28;20036;-71
2022/05/03 10:07:54;;;;;;;5.18;1.40;;;9.90;99.90;;;;;;5059842;28;20556;-71
2022/05/03 10:10:21;;;;;;;3.13;1.05;;;9.90;99.90;;;;;;5062939;28;20047;-71
2022/05/03 10:12:50;;;;;;;4.18;1.88;;;10.00;99.90;;;;;;5063885;28;20055;-71
2022/05/03 10:21:10;;;;;;;3.88;1.15;;;10.10;99.90;;;;;;5058794;28;20052;-71
2022/05/03 10:23:36;;;;;;;2.28;1.08;;;10.20;99.90;;;;;;5062133;28;20111;-71
2022/05/03 10:26:07;;;;;;;2.58;1.17;;;10.30;99.90;;;;;;5061767;28;20146;-71
2022/05/03 10:28:57;;;;;;;2.90;1.10;;;10.30;99.90;;;;;;5052000;28;20036;-71
2022/05/03 10:31:23;;;;;;;3.20;1.05;;;10.40;99.90;;;;;;5076651;28;20037;-71
2022/05/03 10:33:49;;;;;;;2.90;1.10;;;10.50;99.90;;;;;;5063087;28;20117;-71
2022/05/03 10:36:35;;;;;;;2.83;1.17;;;10.50;99.90;;;;;;5046857;28;20064;-71
2022/05/03 10:39:05;;;;;;;;;;;10.50;99.90;;;;;;5046289;28;20057;-71
2022/05/03 10:41:32;;;;;;;3.40;1.20;;;10.60;99.90;;;;;;5065413;28;19917;-71
2022/05/03 10:44:17;;;;;;;3.47;1.05;;;10.60;99.90;;;;;;5035488;28;20032;-71
2022/05/03 10:46:50;;;;;;;4.75;1.02;;;10.70;99.90;;;;;;5070727;28;20029;-71
2022/05/03 10:49:20;;;;;;;2.40;1.23;;;10.60;99.90;;;;;;5053620;28;20319;-71
2022/05/03 10:51:45;;;;;;;6.30;1.42;;;10.70;99.90;;;;;;5060381;28;20051;-71
2022/05/03 10:54:11;;;;;;;8.75;1.35;;;10.70;99.90;;;;;;5060780;28;20394;-70
2022/05/03 10:57:00;;;;;;;6.72;1.27;;;10.80;99.90;;;;;;5058154;28;21066;-71
2022/05/03 10:59:48;;;;;;;2.78;0.98;;;10.80;99.90;;;;;;5060928;28;20139;-70
2022/05/03 11:02:13;;;;;;;2.13;1.00;;;10.90;99.90;;;;;;5045352;28;20071;-70
2022/05/03 11:05:16;;;;;;;3.45;1.17;;;11.00;99.90;;;;;;5064215;28;20079;-70
2022/05/03 11:08:18;;;;;;;11.07;2.10;;;11.00;99.90;;;;;;5061016;28;20085;-70
2022/05/03 11:10:44;;;;;;;4.65;1.15;;;11.10;99.90;;;;;;5065512;28;20043;-70
2022/05/03 11:13:40;;;;;;;2.72;0.88;;;11.10;99.90;;;;;;5062923;28;20075;-70
2022/05/03 11:16:25;;;;;;;3.60;1.42;;;11.20;99.90;;;;;;5040573;28;20056;-71
2022/05/03 11:18:52;;;;;;;2.92;1.23;;;11.30;99.90;;;;;;5066377;28;20058;-71
2022/05/03 11:21:18;;;;;;;1.92;1.05;;;11.30;99.90;;;;;;5058172;28;20048;-71
2022/05/03 11:23:51;;;;;;;1.75;0.77;;;11.40;99.90;;;;;;5059916;28;20510;-70
2022/05/03 11:26:20;;;;;;;4.65;1.08;;;11.40;99.90;;;;;;5039455;28;20044;-70
2022/05/03 11:28:49;;;;;;;1.83;1.00;;;11.40;99.90;;;;;;5059507;28;20446;-70
2022/05/03 11:31:17;;;;;;;4.07;1.15;;;11.50;99.90;;;;;;5047677;28;20083;-70
2022/05/03 11:33:59;;;;;;;2.70;0.70;;;11.50;99.90;;;;;;5064487;28;20052;-70
2022/05/03 11:36:26;;;;;;;4.32;0.73;;;11.50;99.90;;;;;;5063617;28;20131;-70
2022/05/03 11:38:54;;;;;;;9.52;1.67;;;11.60;99.90;;;;;;5025543;28;1187700;-70
2022/05/03 11:41:22;;;;;;;4.38;1.13;;;11.60;99.90;;;;;;5066385;28;20036;-70
2022/05/03 11:43:48;;;;;;;2.67;0.80;;;11.60;99.90;;;;;;5047876;28;20029;-70
2022/05/03 11:46:18;;;;;;;3.63;1.17;;;11.70;99.90;;;;;;5066424;28;20466;-70
2022/05/03 11:48:45;;;;;;;1.98;1.00;;;11.60;99.90;;;;;;5060364;28;20045;-70
2022/05/03 11:56:44;;;;;;;2.40;1.27;;;11.60;99.90;;;;;;5023646;28;20040;-70
2022/05/03 11:59:10;;;;;;;5.90;1.25;;;11.70;99.90;;;;;;5062692;28;20597;-70
2022/05/03 12:01:36;;;;;;;1.42;0.90;;;11.80;99.20;;;;;;5059184;28;20044;-70
2022/05/03 12:04:04;;;;;;;2.50;1.17;;;11.80;99.90;;;;;;5048817;28;20471;-70
2022/05/03 12:06:44;;;;;;;0.73;0.47;;;11.90;98.90;;;;;;5066178;28;20590;-70
2022/05/03 12:09:17;;;;;;;3.22;1.17;;;11.90;96.40;;;;;;5063118;28;20047;-70
2022/05/03 12:14:44;;;;;;;1.73;0.65;;;12.00;95.70;;;;;;5058338;28;20037;-70
2022/05/03 12:17:10;;;;;;;9.05;1.73;;;12.00;98.00;;;;;;5061046;28;20383;-70
2022/05/03 12:19:37;;;;;;;1.45;0.57;;;12.00;97.50;;;;;;5061942;28;20141;-70
2022/05/03 12:22:13;;;;;;;2.25;0.60;;;12.10;97.60;;;;;;5045696;28;21951;-70
2022/05/03 12:24:41;;;;;;;3.08;0.73;;;12.20;96.20;;;;;;5062507;28;20046;-70
2022/05/03 12:27:15;;;;;;;1.75;0.52;;;12.20;97.30;;;;;;5064854;28;20115;-70
2022/05/03 12:29:48;;;;;;;2.00;0.70;;;12.30;94.90;;;;;;5064773;28;20045;-70
2022/05/03 12:32:18;;;;;;;2.05;0.65;;;12.30;95.00;;;;;;5061858;28;20040;-70
2022/05/03 12:35:01;;;;;;;11.77;2.03;;;12.30;93.80;;;;;;5041614;28;20044;-70
2022/05/03 12:37:27;;;;;;;3.00;1.13;;;12.30;93.40;;;;;;5059756;28;20135;-71
2022/05/03 12:40:00;;;;;;;3.42;0.95;;;12.30;95.20;;;;;;5063701;28;20459;-71
2022/05/03 12:42:25;;;;;;;2.63;0.85;;;12.30;94.80;;;;;;5046133;28;20040;-70
2022/05/03 12:44:59;;;;;;;1.27;0.50;;;12.30;95.90;;;;;;5059277;28;20105;-71
2022/05/03 12:47:26;;;;;;;3.55;0.82;;;12.40;95.30;;;;;;5055957;28;20090;-71
2022/05/03 12:49:53;;;;;;;1.15;0.45;;;12.50;93.80;;;;;;5045715;28;20051;-71
2022/05/03 12:52:18;;;;;;;2.78;1.13;;;12.50;93.30;;;;;;5056551;28;20036;-71
2022/05/03 12:54:45;;;;;;;4.70;0.60;;;12.50;94.40;;;;;;5061750;28;20095;-71
2022/05/03 12:59:56;;;;;;;2.08;0.73;;;12.40;93.90;;;;;;5064568;28;20044;-71
2022/05/03 13:02:23;;;;;;;2.00;0.73;;;12.50;93.50;;;;;;5043976;28;20291;-71
2022/05/03 13:04:49;;;;;;;2.17;0.60;;;12.50;93.20;;;;;;5063261;28;20048;-71
2022/05/03 13:07:15;;;;;;;1.33;0.57;;;12.50;93.00;;;;;;5063439;28;20090;-71
2022/05/03 13:09:41;;;;;;;1.52;0.75;;;12.40;92.40;;;;;;5062129;28;20049;-71
2022/05/03 13:12:07;;;;;;;2.45;1.02;;;12.40;92.40;;;;;;5063702;28;20047;-71
2022/05/03 13:14:34;;;;;;;3.58;0.98;;;12.40;92.70;;;;;;5063861;28;20043;-70
2022/05/03 13:16:59;;;;;;;1.85;0.80;;;12.50;92.20;;;;;;5065792;28;20114;-71
2022/05/03 13:19:27;;;;;;;1.48;0.50;;;12.50;92.20;;;;;;5066831;28;20576;-71
2022/05/03 13:21:54;;;;;;;1.50;0.47;;;12.40;91.90;;;;;;5063367;28;20457;-71
2022/05/03 13:24:21;;;;;;;2.30;0.65;;;12.40;91.70;;;;;;5061734;28;20497;-71
2022/05/03 13:26:46;;;;;;;29.92;4.55;;;12.50;92.30;;;;;;5057196;28;20448;-70
2022/05/03 13:29:14;;;;;;;1.25;0.60;;;12.50;91.80;;;;;;5043360;28;20098;-71
2022/05/03 13:31:40;;;;;;;2.75;0.60;;;12.50;91.50;;;;;;5061235;28;20056;-71
2022/05/03 13:34:08;;;;;;;3.97;0.80;;;12.50;91.60;;;;;;5058557;28;20549;-71
2022/05/03 13:42:02;;;;;;;1.70;0.70;;;12.50;91.80;;;;;;5080503;28;20048;-72
2022/05/03 13:44:27;;;;;;;16.33;1.73;;;12.50;92.20;;;;;;5058833;28;20097;-70
2022/05/03 13:46:53;;;;;;;2.65;0.43;;;12.60;90.50;;;;;;5067106;28;20033;-71
2022/05/03 13:49:19;;;;;;;0.80;0.50;;;12.50;90.00;;;;;;5061117;28;20090;-71
2022/05/03 13:51:46;;;;;;;1.27;0.63;;;12.50;91.10;;;;;;5060100;28;20040;-71
2022/05/03 13:54:12;;;;;;;1.08;0.55;;;12.60;91.40;;;;;;5044873;28;20047;-71